Time;durP1;ratioP1;P1;durP2;ratioP2;P2;SDS_P1;SDS_P2;PMS_P1;PMS_P2;Temp;Humidity;BMP_temperature;BMP_pressure;BME280_temperature;BME280_humidity;BME280_pressure;Samples;Min_cycle;Max_cycle;Signal;HPM_P1;HPM_P2
2023/08/18 00:01:14;;;;;;;;;;;;;;;;;;4999745;28;19987;-67
2023/08/18 00:03:40;;;;;;;;;;;;;;;;;;5001141;28;19929;-67
2023/08/18 00:06:06;;;;;;;;;;;;;;;;;;5000415;28;19926;-68
2023/08/18 00:08:32;;;;;;;;;;;;;;;;;;4989704;28;20407;-69
2023/08/18 00:10:59;;;;;;;;;;;;;;;;;;5002297;28;19921;-67
2023/08/18 00:13:25;;;;;;;;;;;;;;;;;;5000749;28;19930;-67
2023/08/18 00:15:51;;;;;;;;;;;;;;;;;;4985964;28;20023;-67
2023/08/18 00:18:16;;;;;;;;;;;;;;;;;;4996411;28;20604;-66
2023/08/18 00:20:42;;;;;;;;;;;;;;;;;;4999155;28;19929;-67
2023/08/18 00:23:08;;;;;;;;;;;;;;;;;;4993809;28;19982;-67
2023/08/18 00:25:34;;;;;;;;;;;;;;;;;;4994302;28;19929;-68
2023/08/18 00:28:00;;;;;;;;;;;;;;;;;;4985360;28;19926;-67
2023/08/18 00:30:26;;;;;;;;;;;;;;;;;;5003117;28;19990;-68
2023/08/18 00:32:52;;;;;;;;;;;;;;;;;;4968788;28;20040;-66
2023/08/18 00:35:18;;;;;;;;;;;;;;;;;;4992670;28;20398;-68
2023/08/18 00:37:44;;;;;;;;;;;;;;;;;;4987093;28;20017;-67
2023/08/18 00:40:10;;;;;;;;;;;;;;;;;;4987554;28;19922;-68
2023/08/18 00:42:36;;;;;;;;;;;;;;;;;;5005263;28;20081;-68
2023/08/18 00:45:02;;;;;;;;;;;;;;;;;;5007046;28;20383;-67
2023/08/18 00:47:28;;;;;;;;;;;;;;;;;;5005748;28;19951;-68
2023/08/18 00:49:54;;;;;;;;;;;;;;;;;;5005681;28;19947;-68
2023/08/18 00:52:20;;;;;;;;;;;;;;;;;;5006207;28;20383;-68
2023/08/18 00:54:46;;;;;;;;;;;;;;;;;;5005918;28;19932;-69
2023/08/18 00:57:12;;;;;;;;;;;;;;;;;;5004307;28;19936;-67
2023/08/18 00:59:38;;;;;;;;;;;;;;;;;;5006089;28;20253;-68
2023/08/18 01:02:04;;;;;;;;;;;;;;;;;;5005168;28;19976;-69
2023/08/18 01:04:30;;;;;;;;;;;;;;;;;;5002092;28;19961;-68
2023/08/18 01:06:56;;;;;;;;;;;;;;;;;;5002730;28;19925;-68
2023/08/18 01:09:21;;;;;;;;;;;;;;;;;;5004645;28;19931;-68
2023/08/18 01:11:48;;;;;;;;;;;;;;;;;;5003805;28;19922;-67
2023/08/18 01:14:14;;;;;;;;;;;;;;;;;;5004114;28;19925;-67
2023/08/18 01:16:40;;;;;;;;;;;;;;;;;;5004398;28;19922;-68
2023/08/18 01:19:06;;;;;;;;;;;;;;;;;;5002076;28;19925;-68
2023/08/18 01:21:32;;;;;;;;;;;;;;;;;;5001330;28;19940;-67
2023/08/18 01:23:58;;;;;;;;;;;;;;;;;;5000518;28;19929;-68
2023/08/18 01:26:24;;;;;;;;;;;;;;;;;;5003676;28;19925;-67
2023/08/18 01:28:50;;;;;;;;;;;;;;;;;;5005738;28;20688;-67
2023/08/18 01:31:16;;;;;;;;;;;;;;;;;;5003055;28;20476;-67
2023/08/18 01:33:42;;;;;;;;;;;;;;;;;;5001299;28;19933;-68
2023/08/18 01:36:08;;;;;;;;;;;;;;;;;;5001769;28;19936;-67
2023/08/18 01:38:34;;;;;;;;;;;;;;;;;;5005744;28;20357;-68
2023/08/18 01:40:59;;;;;;;;;;;;;;;;;;4999375;28;19929;-67
2023/08/18 01:43:27;;;;;;;;;;;;;;;;;;4992673;28;20339;-67
2023/08/18 01:45:53;;;;;;;;;;;;;;;;;;5004326;28;20286;-67
2023/08/18 01:48:19;;;;;;;;;;;;;;;;;;4998878;28;20379;-67
2023/08/18 01:50:45;;;;;;;;;;;;;;;;;;5004367;28;19933;-68
2023/08/18 01:53:11;;;;;;;;;;;;;;;;;;4996457;28;19975;-68
2023/08/18 01:55:37;;;;;;;;;;;;;;;;;;4992809;28;19930;-68
2023/08/18 01:58:03;;;;;;;;;;;;;;;;;;5005637;28;19925;-65
2023/08/18 02:00:29;;;;;;;;;;;;;;;;;;4992582;28;19921;-67
2023/08/18 02:02:55;;;;;;;;;;;;;;;;;;4991730;28;19979;-67
2023/08/18 02:05:20;;;;;;;;;;;;;;;;;;5005648;28;20330;-67
2023/08/18 02:07:46;;;;;;;;;;;;;;;;;;5001131;28;20753;-68
2023/08/18 02:10:12;;;;;;;;;;;;;;;;;;5002205;28;20514;-66
2023/08/18 02:12:38;;;;;;;;;;;;;;;;;;4998847;28;19952;-68
2023/08/18 02:15:04;;;;;;;;;;;;;;;;;;5000786;28;19929;-68
2023/08/18 02:17:30;;;;;;;;;;;;;;;;;;4999981;28;19926;-68
2023/08/18 02:19:59;;;;;;;;;;;;;;;;;;5004526;28;20007;-67
2023/08/18 02:22:25;;;;;;;;;;;;;;;;;;4999632;28;19972;-67
2023/08/18 02:24:51;;;;;;;;;;;;;;;;;;5003403;28;20276;-68
2023/08/18 02:27:17;;;;;;;;;;;;;;;;;;4995600;28;19952;-67
2023/08/18 02:29:43;;;;;;;;;;;;;;;;;;4995708;28;19925;-68
2023/08/18 02:32:09;;;;;;;;;;;;;;;;;;4988632;28;19933;-68
2023/08/18 02:34:35;;;;;;;;;;;;;;;;;;4999124;28;20015;-68
2023/08/18 02:37:01;;;;;;;;;;;;;;;;;;4993458;28;19984;-68
2023/08/18 02:39:27;;;;;;;;;;;;;;;;;;4993200;28;20372;-67
2023/08/18 02:41:54;;;;;;;;;;;;;;;;;;5002265;28;19936;-68
2023/08/18 02:44:20;;;;;;;;;;;;;;;;;;5002623;28;19925;-68
2023/08/18 02:46:47;;;;;;;;;;;;;;;;;;5004496;28;19980;-67
2023/08/18 02:49:13;;;;;;;;;;;;;;;;;;5004306;28;20383;-67
2023/08/18 02:51:39;;;;;;;;;;;;;;;;;;5000574;28;20017;-67
2023/08/18 02:54:05;;;;;;;;;;;;;;;;;;4999729;28;20200;-67
2023/08/18 02:56:34;;;;;;;;;;;;;;;;;;4979985;28;19930;-68
2023/08/18 02:59:00;;;;;;;;;;;;;;;;;;5003918;28;19926;-68
2023/08/18 03:01:25;;;;;;;;;;;;;;;;;;4991828;28;19983;-67
2023/08/18 03:03:51;;;;;;;;;;;;;;;;;;5003865;28;19926;-67
2023/08/18 03:06:17;;;;;;;;;;;;;;;;;;5002596;28;19980;-67
2023/08/18 03:08:43;;;;;;;;;;;;;;;;;;5000797;28;19933;-67
2023/08/18 03:11:09;;;;;;;;;;;;;;;;;;4998325;28;19926;-68
2023/08/18 03:13:35;;;;;;;;;;;;;;;;;;4999284;28;20434;-67
2023/08/18 03:16:01;;;;;;;;;;;;;;;;;;5000538;28;19925;-68
2023/08/18 03:18:27;;;;;;;;;;;;;;;;;;4997875;28;20280;-67
2023/08/18 03:20:53;;;;;;;;;;;;;;;;;;5004183;28;19934;-67
2023/08/18 03:23:19;;;;;;;;;;;;;;;;;;4995030;28;19925;-67
2023/08/18 03:25:45;;;;;;;;;;;;;;;;;;4996498;28;19999;-67
2023/08/18 03:28:11;;;;;;;;;;;;;;;;;;5001705;28;19925;-67
2023/08/18 03:30:37;;;;;;;;;;;;;;;;;;4987169;28;19973;-67
2023/08/18 03:33:03;;;;;;;;;;;;;;;;;;4987686;28;19980;-67
2023/08/18 03:35:35;;;;;;;;;;;;;;;;;;4985073;28;19926;-67
2023/08/18 03:38:01;;;;;;;;;;;;;;;;;;4985820;28;19929;-67
2023/08/18 03:40:27;;;;;;;;;;;;;;;;;;5003157;28;19926;-67
2023/08/18 03:42:52;;;;;;;;;;;;;;;;;;5001298;28;19960;-67
2023/08/18 03:45:18;;;;;;;;;;;;;;;;;;4999930;28;19926;-67
2023/08/18 03:47:45;;;;;;;;;;;;;;;;;;4999619;28;19925;-66
2023/08/18 03:50:11;;;;;;;;;;;;;;;;;;4999984;28;19980;-67
2023/08/18 03:52:36;;;;;;;;;;;;;;;;;;5003336;28;19925;-67
2023/08/18 03:55:03;;;;;;;;;;;;;;;;;;4998446;28;19941;-67
2023/08/18 03:57:29;;;;;;;;;;;;;;;;;;4998183;28;19929;-67
2023/08/18 03:59:55;;;;;;;;;;;;;;;;;;4994293;28;19988;-67
2023/08/18 04:02:21;;;;;;;;;;;;;;;;;;4998583;28;19933;-67
2023/08/18 04:04:47;;;;;;;;;;;;;;;;;;4984990;28;19926;-67
2023/08/18 04:07:13;;;;;;;;;;;;;;;;;;5001346;28;20287;-67
2023/08/18 04:09:39;;;;;;;;;;;;;;;;;;5002695;28;20406;-67
2023/08/18 04:12:05;;;;;;;;;;;;;;;;;;4996997;28;19983;-68
2023/08/18 04:14:31;;;;;;;;;;;;;;;;;;4995232;28;19983;-67
2023/08/18 04:16:56;;;;;;;;;;;;;;;;;;4995821;28;20395;-67
2023/08/18 04:19:22;;;;;;;;;;;;;;;;;;4992581;28;19934;-67
2023/08/18 04:21:48;;;;;;;;;;;;;;;;;;4993794;28;20287;-68
2023/08/18 04:24:14;;;;;;;;;;;;;;;;;;4994520;28;19933;-67
2023/08/18 04:26:40;;;;;;;;;;;;;;;;;;4993113;28;19925;-67
2023/08/18 04:29:06;;;;;;;;;;;;;;;;;;4995380;28;20383;-67
2023/08/18 04:31:32;;;;;;;;;;;;;;;;;;4999414;28;20313;-68
2023/08/18 04:33:58;;;;;;;;;;;;;;;;;;4985868;28;19933;-67
2023/08/18 04:36:24;;;;;;;;;;;;;;;;;;4997110;28;20291;-67
2023/08/18 04:38:50;;;;;;;;;;;;;;;;;;4990890;28;20021;-68
2023/08/18 04:41:16;;;;;;;;;;;;;;;;;;5000076;28;19932;-67
2023/08/18 04:43:42;;;;;;;;;;;;;;;;;;5000379;28;19980;-67
2023/08/18 04:46:08;;;;;;;;;;;;;;;;;;5001690;28;19936;-68
2023/08/18 04:48:34;;;;;;;;;;;;;;;;;;4997029;28;20427;-67
2023/08/18 04:51:00;;;;;;;;;;;;;;;;;;5000429;28;19926;-67
2023/08/18 04:53:26;;;;;;;;;;;;;;;;;;4998086;28;19933;-66
2023/08/18 04:55:52;;;;;;;;;;;;;;;;;;4999684;28;19933;-67
2023/08/18 04:58:18;;;;;;;;;;;;;;;;;;4996920;28;19925;-67
2023/08/18 05:00:44;;;;;;;;;;;;;;;;;;4989442;28;19926;-67
2023/08/18 05:03:10;;;;;;;;;;;;;;;;;;5001713;28;20083;-67
2023/08/18 05:05:36;;;;;;;;;;;;;;;;;;5000470;28;19925;-67
2023/08/18 05:08:02;;;;;;;;;;;;;;;;;;5001136;28;19941;-66
2023/08/18 05:10:28;;;;;;;;;;;;;;;;;;5000247;28;20620;-68
2023/08/18 05:12:54;;;;;;;;;;;;;;;;;;5000772;28;19925;-67
2023/08/18 05:15:21;;;;;;;;;;;;;;;;;;4996203;28;19926;-67
2023/08/18 05:17:47;;;;;;;;;;;;;;;;;;4993151;28;19926;-68
2023/08/18 05:20:14;;;;;;;;;;;;;;;;;;4993645;28;19925;-67
2023/08/18 05:22:40;;;;;;;;;;;;;;;;;;4989361;28;19965;-67
2023/08/18 05:25:07;;;;;;;;;;;;;;;;;;4992401;28;19925;-68
2023/08/18 05:27:33;;;;;;;;;;;;;;;;;;4998109;28;19932;-67
2023/08/18 05:29:59;;;;;;;;;;;;;;;;;;4994922;28;20024;-68
2023/08/18 05:32:25;;;;;;;;;;;;;;;;;;4997613;28;19930;-67
2023/08/18 05:34:51;;;;;;;;;;;;;;;;;;4995395;28;19926;-68
2023/08/18 05:37:17;;;;;;;;;;;;;;;;;;5002649;28;19937;-68
2023/08/18 05:39:43;;;;;;;;;;;;;;;;;;4991938;28;19930;-68
2023/08/18 05:42:09;;;;;;;;;;;;;;;;;;4993175;28;20031;-68
2023/08/18 05:44:35;;;;;;;;;;;;;;;;;;4989243;28;19926;-67
2023/08/18 05:47:01;;;;;;;;;;;;;;;;;;4994279;28;19932;-67
2023/08/18 05:49:27;;;;;;;;;;;;;;;;;;5006423;28;19925;-69
2023/08/18 05:51:53;;;;;;;;;;;;;;;;;;4990992;28;19941;-70
2023/08/18 05:54:19;;;;;;;;;;;;;;;;;;5002611;28;19941;-66
2023/08/18 05:56:45;;;;;;;;;;;;;;;;;;4993173;28;19926;-65
2023/08/18 05:59:11;;;;;;;;;;;;;;;;;;5003504;28;19925;-69
2023/08/18 06:01:37;;;;;;;;;;;;;;;;;;4992043;28;19947;-72
2023/08/18 06:04:03;;;;;;;;;;;;;;;;;;4992307;28;20350;-68
2023/08/18 06:06:29;;;;;;;;;;;;;;;;;;4999921;28;19934;-70
2023/08/18 06:08:55;;;;;;;;;;;;;;;;;;4982902;28;19930;-69
2023/08/18 06:11:21;;;;;;;;;;;;;;;;;;4999504;28;20629;-69
2023/08/18 06:13:47;;;;;;;;;;;;;;;;;;5000011;28;19987;-70
2023/08/18 06:16:13;;;;;;;;;;;;;;;;;;4999170;28;20163;-68
2023/08/18 06:18:39;;;;;;;;;;;;;;;;;;5000735;28;19964;-68
2023/08/18 06:21:04;;;;;;;;;;;;;;;;;;4994690;28;20091;-68
2023/08/18 06:23:30;;;;;;;;;;;;;;;;;;4997718;28;20587;-69
2023/08/18 06:25:57;;;;;;;;;;;;;;;;;;4993040;28;20632;-68
2023/08/18 06:28:23;;;;;;;;;;;;;;;;;;4995557;28;20010;-69
2023/08/18 06:30:49;;;;;;;;;;;;;;;;;;5001683;28;19977;-69
2023/08/18 06:33:15;;;;;;;;;;;;;;;;;;5002405;28;20445;-67
2023/08/18 06:35:40;;;;;;;;;;;;;;;;;;4996282;28;19932;-68
2023/08/18 06:38:06;;;;;;;;;;;;;;;;;;4997137;28;19930;-68
2023/08/18 06:40:32;;;;;;;;;;;;;;;;;;5001336;28;20021;-62
2023/08/18 06:42:58;;;;;;;;;;;;;;;;;;4996804;28;19929;-68
2023/08/18 06:45:24;;;;;;;;;;;;;;;;;;4991719;28;19961;-68
2023/08/18 06:47:50;;;;;;;;;;;;;;;;;;4994844;28;19979;-69
2023/08/18 06:50:16;;;;;;;;;;;;;;;;;;5001372;28;19944;-68
2023/08/18 06:52:42;;;;;;;;;;;;;;;;;;5001603;28;19983;-67
2023/08/18 06:55:13;;;;;;;;;;;;;;;;;;4991742;28;20483;-66
2023/08/18 06:57:39;;;;;;;;;;;;;;;;;;4998537;28;19925;-66
2023/08/18 07:00:06;;;;;;;;;;;;;;;;;;4991743;28;20587;-66
2023/08/18 07:02:32;;;;;;;;;;;;;;;;;;4995645;28;19934;-68
2023/08/18 07:04:58;;;;;;;;;;;;;;;;;;4993783;28;19975;-68
2023/08/18 07:07:24;;;;;;;;;;;;;;;;;;4999351;28;19925;-67
2023/08/18 07:09:50;;;;;;;;;;;;;;;;;;4997307;28;19926;-69
2023/08/18 07:12:16;;;;;;;;;;;;;;;;;;4983409;28;19921;-71
2023/08/18 07:14:42;;;;;;;;;;;;;;;;;;5000762;28;20053;-70
2023/08/18 07:17:08;;;;;;;;;;;;;;;;;;5008883;28;20008;-69
2023/08/18 07:19:34;;;;;;;;;;;;;;;;;;4999554;28;19996;-67
2023/08/18 07:22:00;;;;;;;;;;;;;;;;;;5003390;28;20353;-69
2023/08/18 07:24:26;;;;;;;;;;;;;;;;;;5000202;28;19999;-68
2023/08/18 07:26:53;;;;;;;;;;;;;;;;;;5001748;28;19929;-70
2023/08/18 07:29:19;;;;;;;;;;;;;;;;;;4994226;28;19925;-69
2023/08/18 07:31:45;;;;;;;;;;;;;;;;;;4996945;28;20298;-69
2023/08/18 07:34:11;;;;;;;;;;;;;;;;;;4998114;28;19936;-70
2023/08/18 07:36:38;;;;;;;;;;;;;;;;;;4998059;28;19921;-68
2023/08/18 07:39:06;;;;;;;;;;;;;;;;;;4994380;28;19984;-70
2023/08/18 07:41:32;;;;;;;;;;;;;;;;;;5002807;28;19930;-70
2023/08/18 07:43:58;;;;;;;;;;;;;;;;;;5002808;28;19930;-71
2023/08/18 07:46:23;;;;;;;;;;;;;;;;;;4999418;28;19935;-70
2023/08/18 07:48:49;;;;;;;;;;;;;;;;;;4985968;28;19922;-71
2023/08/18 07:51:15;;;;;;;;;;;;;;;;;;4976359;28;20290;-72
2023/08/18 07:53:42;;;;;;;;;;;;;;;;;;4988567;28;19966;-71
2023/08/18 07:56:08;;;;;;;;;;;;;;;;;;4966565;28;20666;-71
2023/08/18 07:58:34;;;;;;;;;;;;;;;;;;4993701;28;19941;-70
2023/08/18 08:01:01;;;;;;;;;;;;;;;;;;4989379;28;19925;-71
2023/08/18 08:03:27;;;;;;;;;;;;;;;;;;4999432;28;20624;-71
2023/08/18 08:05:53;;;;;;;;;;;;;;;;;;4998973;28;20134;-69
2023/08/18 08:08:19;;;;;;;;;;;;;;;;;;5000638;28;20020;-70
2023/08/18 08:10:44;;;;;;;;;;;;;;;;;;4988107;28;19930;-71
2023/08/18 08:13:10;;;;;;;;;;;;;;;;;;4989824;28;19929;-71
2023/08/18 08:15:36;;;;;;;;;;;;;;;;;;4976128;28;20295;-70
2023/08/18 08:18:03;;;;;;;;;;;;;;;;;;4998408;28;20585;-70
2023/08/18 08:20:29;;;;;;;;;;;;;;;;;;4986454;28;20417;-70
2023/08/18 08:22:55;;;;;;;;;;;;;;;;;;4995201;28;20020;-70
2023/08/18 08:25:21;;;;;;;;;;;;;;;;;;4991164;28;19929;-72
2023/08/18 08:27:47;;;;;;;;;;;;;;;;;;4998244;28;20039;-70
2023/08/18 08:30:13;;;;;;;;;;;;;;;;;;4985304;28;19929;-69
2023/08/18 08:32:39;;;;;;;;;;;;;;;;;;4993407;28;19965;-70
2023/08/18 08:35:04;;;;;;;;;;;;;;;;;;4995424;28;20390;-70
2023/08/18 08:37:30;;;;;;;;;;;;;;;;;;4978857;28;19929;-70
2023/08/18 08:39:56;;;;;;;;;;;;;;;;;;4996942;28;19933;-70
2023/08/18 08:42:22;;;;;;;;;;;;;;;;;;4986334;28;20354;-71
2023/08/18 08:44:48;;;;;;;;;;;;;;;;;;4992151;28;19929;-71
2023/08/18 08:47:14;;;;;;;;;;;;;;;;;;4998714;28;19929;-69
2023/08/18 08:49:40;;;;;;;;;;;;;;;;;;4997295;28;19971;-70
2023/08/18 08:52:06;;;;;;;;;;;;;;;;;;4995871;28;19929;-70
2023/08/18 08:54:32;;;;;;;;;;;;;;;;;;4994053;28;20008;-69
2023/08/18 08:56:58;;;;;;;;;;;;;;;;;;4995885;28;20422;-70
2023/08/18 08:59:23;;;;;;;;;;;;;;;;;;4995923;28;19983;-69
2023/08/18 09:01:51;;;;;;;;;;;;;;;;;;4998490;28;19951;-70
2023/08/18 09:04:17;;;;;;;;;;;;;;;;;;5002197;28;19930;-69
2023/08/18 09:06:43;;;;;;;;;;;;;;;;;;5003380;28;20140;-70
2023/08/18 09:09:09;;;;;;;;;;;;;;;;;;4997637;28;19937;-70
2023/08/18 09:11:34;;;;;;;;;;;;;;;;;;5002573;28;19926;-70
2023/08/18 09:14:00;;;;;;;;;;;;;;;;;;4998961;28;20411;-68
2023/08/18 09:16:26;;;;;;;;;;;;;;;;;;5001245;28;19926;-69
2023/08/18 09:18:52;;;;;;;;;;;;;;;;;;4993748;28;20040;-70
2023/08/18 09:21:19;;;;;;;;;;;;;;;;;;4999463;28;19933;-70
2023/08/18 09:23:45;;;;;;;;;;;;;;;;;;4993799;28;19934;-70
2023/08/18 09:26:11;;;;;;;;;;;;;;;;;;4980861;28;19949;-70
2023/08/18 09:28:36;;;;;;;;;;;;;;;;;;4999829;28;19929;-70
2023/08/18 09:31:02;;;;;;;;;;;;;;;;;;4998993;28;19999;-70
2023/08/18 09:33:30;;;;;;;;;;;;;;;;;;4997662;28;19929;-70
2023/08/18 09:35:56;;;;;;;;;;;;;;;;;;5003565;28;19925;-70
2023/08/18 09:38:21;;;;;;;;;;;;;;;;;;5002550;28;19929;-70
2023/08/18 09:40:47;;;;;;;;;;;;;;;;;;5000577;28;20287;-70
2023/08/18 09:43:13;;;;;;;;;;;;;;;;;;5001613;28;20375;-69
2023/08/18 09:45:40;;;;;;;;;;;;;;;;;;4997978;28;19929;-70
2023/08/18 09:48:06;;;;;;;;;;;;;;;;;;4994858;28;20294;-71
2023/08/18 09:50:32;;;;;;;;;;;;;;;;;;5003317;28;19929;-72
2023/08/18 09:52:58;;;;;;;;;;;;;;;;;;4994344;28;19984;-72
2023/08/18 09:55:24;;;;;;;;;;;;;;;;;;4973946;28;20589;-72
2023/08/18 09:57:50;;;;;;;;;;;;;;;;;;5002919;28;19982;-72
2023/08/18 10:00:15;;;;;;;;;;;;;;;;;;4991762;28;19936;-71
2023/08/18 10:02:41;;;;;;;;;;;;;;;;;;4995728;28;20033;-72
2023/08/18 10:05:07;;;;;;;;;;;;;;;;;;5002013;28;20037;-72
2023/08/18 10:07:33;;;;;;;;;;;;;;;;;;5000456;28;20384;-72
2023/08/18 10:09:59;;;;;;;;;;;;;;;;;;5000833;28;19980;-71
2023/08/18 10:12:25;;;;;;;;;;;;;;;;;;5001559;28;19930;-72
2023/08/18 10:14:51;;;;;;;;;;;;;;;;;;4999566;28;20341;-72
2023/08/18 10:17:21;;;;;;;;;;;;;;;;;;5001502;28;19936;-71
2023/08/18 10:19:47;;;;;;;;;;;;;;;;;;4995534;28;20641;-72
2023/08/18 10:22:13;;;;;;;;;;;;;;;;;;5000916;28;19952;-70
2023/08/18 10:24:39;;;;;;;;;;;;;;;;;;4999585;28;19933;-72
2023/08/18 10:27:10;;;;;;;;;;;;;;;;;;4996749;28;19930;-70
2023/08/18 10:29:36;;;;;;;;;;;;;;;;;;4989429;28;19981;-70
2023/08/18 10:32:02;;;;;;;;;;;;;;;;;;4994864;28;20024;-69
2023/08/18 10:34:28;;;;;;;;;;;;;;;;;;5001073;28;20402;-70
2023/08/18 10:36:54;;;;;;;;;;;;;;;;;;4996555;28;19963;-70
2023/08/18 10:39:20;;;;;;;;;;;;;;;;;;5001030;28;19952;-70
2023/08/18 10:41:45;;;;;;;;;;;;;;;;;;4996545;28;19925;-70
2023/08/18 10:44:11;;;;;;;;;;;;;;;;;;5000795;28;19925;-71
2023/08/18 10:46:37;;;;;;;;;;;;;;;;;;4996639;28;19937;-70
2023/08/18 10:49:03;;;;;;;;;;;;;;;;;;4997174;28;19929;-71
2023/08/18 10:51:29;;;;;;;;;;;;;;;;;;4993800;28;19929;-71
2023/08/18 10:53:55;;;;;;;;;;;;;;;;;;4994045;28;20457;-71
2023/08/18 10:56:21;;;;;;;;;;;;;;;;;;5000567;28;19929;-69
2023/08/18 10:58:47;;;;;;;;;;;;;;;;;;5000305;28;19933;-70
2023/08/18 11:01:13;;;;;;;;;;;;;;;;;;5000203;28;19937;-69
2023/08/18 11:03:39;;;;;;;;;;;;;;;;;;4998909;28;19926;-69
2023/08/18 11:06:05;;;;;;;;;;;;;;;;;;4988571;28;19929;-69
2023/08/18 11:08:31;;;;;;;;;;;;;;;;;;5002518;28;19929;-69
2023/08/18 11:10:57;;;;;;;;;;;;;;;;;;5000673;28;19933;-69
2023/08/18 11:13:22;;;;;;;;;;;;;;;;;;4995158;28;20184;-69
2023/08/18 11:15:49;;;;;;;;;;;;;;;;;;4992483;28;19926;-68
2023/08/18 11:18:15;;;;;;;;;;;;;;;;;;4995814;28;20025;-69
2023/08/18 11:20:41;;;;;;;;;;;;;;;;;;4997946;28;20028;-69
2023/08/18 11:23:06;;;;;;;;;;;;;;;;;;5001910;28;19936;-70
2023/08/18 11:25:32;;;;;;;;;;;;;;;;;;5001041;28;19936;-68
2023/08/18 11:27:58;;;;;;;;;;;;;;;;;;5000515;28;20016;-69
2023/08/18 11:30:24;;;;;;;;;;;;;;;;;;4990930;28;19932;-68
2023/08/18 11:32:53;;;;;;;;;;;;;;;;;;5000101;28;19930;-69
2023/08/18 11:35:19;;;;;;;;;;;;;;;;;;4994950;28;19933;-69
2023/08/18 11:37:45;;;;;;;;;;;;;;;;;;4989614;28;19929;-69
2023/08/18 11:40:12;;;;;;;;;;;;;;;;;;4991978;28;19932;-70
2023/08/18 11:42:38;;;;;;;;;;;;;;;;;;4988452;28;19925;-70
2023/08/18 11:45:04;;;;;;;;;;;;;;;;;;4989291;28;20454;-69
2023/08/18 11:47:29;;;;;;;;;;;;;;;;;;4986946;28;19937;-69
2023/08/18 11:49:55;;;;;;;;;;;;;;;;;;4995578;28;19933;-68
2023/08/18 11:52:21;;;;;;;;;;;;;;;;;;4995862;28;19935;-69
2023/08/18 11:54:47;;;;;;;;;;;;;;;;;;4993721;28;19930;-70
2023/08/18 11:57:16;;;;;;;;;;;;;;;;;;4992956;28;19936;-69
2023/08/18 11:59:42;;;;;;;;;;;;;;;;;;4994703;28;20503;-70
2023/08/18 12:02:08;;;;;;;;;;;;;;;;;;4980528;28;20023;-70
2023/08/18 12:04:34;;;;;;;;;;;;;;;;;;4998043;28;19930;-69
2023/08/18 12:07:00;;;;;;;;;;;;;;;;;;4998515;28;19987;-69
2023/08/18 12:09:26;;;;;;;;;;;;;;;;;;4993781;28;19934;-71
2023/08/18 12:11:52;;;;;;;;;;;;;;;;;;4995775;28;20658;-70
2023/08/18 12:14:18;;;;;;;;;;;;;;;;;;4987559;28;19929;-71
2023/08/18 12:16:44;;;;;;;;;;;;;;;;;;5000175;28;19933;-70
2023/08/18 12:19:10;;;;;;;;;;;;;;;;;;5000014;28;20020;-71
2023/08/18 12:21:36;;;;;;;;;;;;;;;;;;4991381;28;20044;-71
2023/08/18 12:24:03;;;;;;;;;;;;;;;;;;4981067;28;19929;-69
2023/08/18 12:26:29;;;;;;;;;;;;;;;;;;4994451;28;19930;-69
2023/08/18 12:28:55;;;;;;;;;;;;;;;;;;4988891;28;19925;-70
2023/08/18 12:31:24;;;;;;;;;;;;;;;;;;4985181;28;19976;-70
2023/08/18 12:33:50;;;;;;;;;;;;;;;;;;4989608;28;19925;-70
2023/08/18 12:36:16;;;;;;;;;;;;;;;;;;5004219;28;20310;-69
2023/08/18 12:38:42;;;;;;;;;;;;;;;;;;5002580;28;19934;-70
2023/08/18 12:41:08;;;;;;;;;;;;;;;;;;5001340;28;20000;-70
2023/08/18 12:43:36;;;;;;;;;;;;;;;;;;5001535;28;20028;-70
2023/08/18 12:46:02;;;;;;;;;;;;;;;;;;5003440;28;19934;-69
2023/08/18 12:48:28;;;;;;;;;;;;;;;;;;4999512;28;19936;-70
2023/08/18 12:50:54;;;;;;;;;;;;;;;;;;4994319;28;19933;-70
2023/08/18 12:53:20;;;;;;;;;;;;;;;;;;4997310;28;20830;-69
2023/08/18 12:55:46;;;;;;;;;;;;;;;;;;4993435;28;19983;-69
2023/08/18 12:58:12;;;;;;;;;;;;;;;;;;5002268;28;19932;-71
2023/08/18 13:00:38;;;;;;;;;;;;;;;;;;4988960;28;20095;-71
2023/08/18 13:03:04;;;;;;;;;;;;;;;;;;5002014;28;19933;-70
2023/08/18 13:05:30;;;;;;;;;;;;;;;;;;4993226;28;19930;-71
2023/08/18 13:07:56;;;;;;;;;;;;;;;;;;5003227;28;19934;-71
2023/08/18 13:10:22;;;;;;;;;;;;;;;;;;4999535;28;19933;-72
2023/08/18 13:12:48;;;;;;;;;;;;;;;;;;5003199;28;20282;-71
2023/08/18 13:15:14;;;;;;;;;;;;;;;;;;5002814;28;19975;-70
2023/08/18 13:17:40;;;;;;;;;;;;;;;;;;5001273;28;19925;-71
2023/08/18 13:20:07;;;;;;;;;;;;;;;;;;4999123;28;21088;-70
2023/08/18 13:22:35;;;;;;;;;;;;;;;;;;5000807;28;20894;-65
2023/08/18 13:25:01;;;;;;;;;;;;;;;;;;4999428;28;19980;-72
2023/08/18 13:27:27;;;;;;;;;;;;;;;;;;4998151;28;19987;-71
2023/08/18 13:29:53;;;;;;;;;;;;;;;;;;4997961;28;19969;-71
2023/08/18 13:32:19;;;;;;;;;;;;;;;;;;4992088;28;19929;-71
2023/08/18 13:34:46;;;;;;;;;;;;;;;;;;4998111;28;20685;-70
2023/08/18 13:37:12;;;;;;;;;;;;;;;;;;4995437;28;19937;-69
2023/08/18 13:39:38;;;;;;;;;;;;;;;;;;5003960;28;19925;-70
2023/08/18 13:42:04;;;;;;;;;;;;;;;;;;4999360;28;20421;-69
2023/08/18 13:44:30;;;;;;;;;;;;;;;;;;4992524;28;19929;-70
2023/08/18 13:46:57;;;;;;;;;;;;;;;;;;4998188;28;19929;-69
2023/08/18 13:49:23;;;;;;;;;;;;;;;;;;5001205;28;19941;-68
2023/08/18 13:51:49;;;;;;;;;;;;;;;;;;4988517;28;20549;-70
2023/08/18 13:54:15;;;;;;;;;;;;;;;;;;4994905;28;19926;-70
2023/08/18 13:56:42;;;;;;;;;;;;;;;;;;5000119;28;20427;-71
2023/08/18 13:59:08;;;;;;;;;;;;;;;;;;4998403;28;19933;-71
2023/08/18 14:01:34;;;;;;;;;;;;;;;;;;4990236;28;19933;-70
2023/08/18 14:04:00;;;;;;;;;;;;;;;;;;5000647;28;19926;-71
2023/08/18 14:06:26;;;;;;;;;;;;;;;;;;5000202;28;19956;-71
2023/08/18 14:08:53;;;;;;;;;;;;;;;;;;4999333;28;20350;-72
2023/08/18 14:11:19;;;;;;;;;;;;;;;;;;5000418;28;19932;-72
2023/08/18 14:13:45;;;;;;;;;;;;;;;;;;5000375;28;19926;-72
2023/08/18 14:16:12;;;;;;;;;;;;;;;;;;4995717;28;20023;-72
2023/08/18 14:18:38;;;;;;;;;;;;;;;;;;4999258;28;19921;-70
2023/08/18 14:21:04;;;;;;;;;;;;;;;;;;4997203;28;19941;-71
2023/08/18 14:23:30;;;;;;;;;;;;;;;;;;4993726;28;19930;-71
2023/08/18 14:25:56;;;;;;;;;;;;;;;;;;4993500;28;19936;-72
2023/08/18 14:28:22;;;;;;;;;;;;;;;;;;4992701;28;19936;-72
2023/08/18 14:30:48;;;;;;;;;;;;;;;;;;4999399;28;19933;-71
2023/08/18 14:33:14;;;;;;;;;;;;;;;;;;4988040;28;19930;-70
2023/08/18 14:35:40;;;;;;;;;;;;;;;;;;4994145;28;19940;-71
2023/08/18 14:38:06;;;;;;;;;;;;;;;;;;4998411;28;19979;-65
2023/08/18 14:40:32;;;;;;;;;;;;;;;;;;4998896;28;19972;-70
2023/08/18 14:42:58;;;;;;;;;;;;;;;;;;4984935;28;20354;-71
2023/08/18 14:45:24;;;;;;;;;;;;;;;;;;4999696;28;20016;-71
2023/08/18 14:47:50;;;;;;;;;;;;;;;;;;5002483;28;19929;-73
2023/08/18 14:50:16;;;;;;;;;;;;;;;;;;5002083;28;19979;-72
2023/08/18 14:52:42;;;;;;;;;;;;;;;;;;5001108;28;20497;-72
2023/08/18 14:55:08;;;;;;;;;;;;;;;;;;4987874;28;19933;-72
2023/08/18 14:57:35;;;;;;;;;;;;;;;;;;4991332;28;19932;-72
2023/08/18 15:00:01;;;;;;;;;;;;;;;;;;4995713;28;19926;-69
2023/08/18 15:02:26;;;;;;;;;;;;;;;;;;4987628;28;19975;-72
2023/08/18 15:04:52;;;;;;;;;;;;;;;;;;5002398;28;20374;-72
2023/08/18 15:07:18;;;;;;;;;;;;;;;;;;4998846;28;19929;-72
2023/08/18 15:09:44;;;;;;;;;;;;;;;;;;4992337;28;19987;-72
2023/08/18 15:12:10;;;;;;;;;;;;;;;;;;4995341;28;19922;-72
2023/08/18 15:14:37;;;;;;;;;;;;;;;;;;4998414;28;19934;-72
2023/08/18 15:17:02;;;;;;;;;;;;;;;;;;4991687;28;19934;-70
2023/08/18 15:19:28;;;;;;;;;;;;;;;;;;4979667;28;19934;-71
2023/08/18 15:21:54;;;;;;;;;;;;;;;;;;4998919;28;19933;-72
2023/08/18 15:24:20;;;;;;;;;;;;;;;;;;4973939;28;20041;-72
2023/08/18 15:26:46;;;;;;;;;;;;;;;;;;4997144;28;20399;-71
2023/08/18 15:29:12;;;;;;;;;;;;;;;;;;4988909;28;19953;-72
2023/08/18 15:31:38;;;;;;;;;;;;;;;;;;4997616;28;20342;-71
2023/08/18 15:34:04;;;;;;;;;;;;;;;;;;4982198;28;20484;-70
2023/08/18 15:36:30;;;;;;;;;;;;;;;;;;4975111;28;19936;-72
2023/08/18 15:38:56;;;;;;;;;;;;;;;;;;4998795;28;19961;-73
2023/08/18 15:41:22;;;;;;;;;;;;;;;;;;4988256;28;19930;-72
2023/08/18 15:43:47;;;;;;;;;;;;;;;;;;4989781;28;20362;-72
2023/08/18 15:46:15;;;;;;;;;;;;;;;;;;4999436;28;20401;-76
2023/08/18 15:48:41;;;;;;;;;;;;;;;;;;4997554;28;20016;-73
2023/08/18 15:51:07;;;;;;;;;;;;;;;;;;4992174;28;19940;-73
2023/08/18 15:53:33;;;;;;;;;;;;;;;;;;4986595;28;19991;-71
2023/08/18 15:55:59;;;;;;;;;;;;;;;;;;4999595;28;20032;-73
2023/08/18 15:58:27;;;;;;;;;;;;;;;;;;4998709;28;19941;-72
2023/08/18 16:00:53;;;;;;;;;;;;;;;;;;4987210;28;19933;-73
2023/08/18 16:03:19;;;;;;;;;;;;;;;;;;4991434;28;19929;-72
2023/08/18 16:05:45;;;;;;;;;;;;;;;;;;4980250;28;19926;-71
2023/08/18 16:08:11;;;;;;;;;;;;;;;;;;4998847;28;19942;-70
2023/08/18 16:10:37;;;;;;;;;;;;;;;;;;4996311;28;19929;-71
2023/08/18 16:13:03;;;;;;;;;;;;;;;;;;5000483;28;19929;-72
2023/08/18 16:15:29;;;;;;;;;;;;;;;;;;4999534;28;19929;-71
2023/08/18 16:17:55;;;;;;;;;;;;;;;;;;4996116;28;20275;-70
2023/08/18 16:20:21;;;;;;;;;;;;;;;;;;4998503;28;19964;-71
2023/08/18 16:22:47;;;;;;;;;;;;;;;;;;4999283;28;20023;-70
2023/08/18 16:25:13;;;;;;;;;;;;;;;;;;5000245;28;20281;-70
2023/08/18 16:27:39;;;;;;;;;;;;;;;;;;4996043;28;19983;-71
2023/08/18 16:30:05;;;;;;;;;;;;;;;;;;4982506;28;19979;-70
2023/08/18 16:32:31;;;;;;;;;;;;;;;;;;4992866;28;19936;-74
2023/08/18 16:34:57;;;;;;;;;;;;;;;;;;4996316;28;19925;-72
2023/08/18 16:37:23;;;;;;;;;;;;;;;;;;4999937;28;20207;-68